Time;durP1;ratioP1;P1;durP2;ratioP2;P2;SDS_P1;SDS_P2;PMS_P1;PMS_P2;Temp;Humidity;BMP_temperature;BMP_pressure;BME280_temperature;BME280_humidity;BME280_pressure;Samples;Min_cycle;Max_cycle;Signal;HPM_P1;HPM_P2
2023/05/04 00:01:09;;;;;;;12.87;4.43;;;;;;;4.42;100.00;102400.19;7393097;19;20449;-37
2023/05/04 00:03:42;;;;;;;11.77;4.63;;;;;;;4.34;100.00;102419.91;7395536;19;20443;-37
2023/05/04 00:06:11;;;;;;;12.13;4.80;;;;;;;4.24;100.00;102435.09;7392060;19;20451;-37
2023/05/04 00:08:41;;;;;;;11.63;4.90;;;;;;;4.13;100.00;102470.78;7395481;19;20433;-38
2023/05/04 00:11:10;;;;;;;12.57;4.70;;;;;;;4.05;100.00;102508.34;7392421;19;20403;-37
2023/05/04 00:13:40;;;;;;;9.20;4.03;;;;;;;4.05;100.00;102538.09;7396208;19;20486;-38
2023/05/04 00:16:10;;;;;;;15.13;5.23;;;;;;;4.01;100.00;102562.44;7391548;19;20422;-38
2023/05/04 00:18:42;;;;;;;7.30;4.30;;;;;;;3.99;100.00;102583.50;7395291;19;20431;-38
2023/05/04 00:21:11;;;;;;;10.57;5.10;;;;;;;4.02;100.00;102599.13;7391419;19;20434;-38
2023/05/04 00:23:41;;;;;;;16.13;4.80;;;;;;;3.96;100.00;102613.84;7395563;19;21285;-37
2023/05/04 00:26:13;;;;;;;12.47;4.83;;;;;;;3.94;100.00;102628.13;7391168;19;21393;-39
2023/05/04 00:28:43;;;;;;;14.93;5.20;;;;;;;3.81;100.00;102634.56;7391306;19;20383;-37
2023/05/04 00:31:13;;;;;;;9.43;4.23;;;;;;;3.80;100.00;102655.75;7386193;19;20403;-37
2023/05/04 00:33:45;;;;;;;12.43;4.73;;;;;;;3.84;100.00;102670.63;7389024;19;20428;-36
2023/05/04 00:36:15;;;;;;;18.30;7.10;;;;;;;3.83;100.00;102678.13;7387134;19;20443;-37
2023/05/04 00:38:50;;;;;;;14.00;4.93;;;;;;;3.87;100.00;102695.56;7388575;19;20388;-40
2023/05/04 00:41:20;;;;;;;11.47;5.60;;;;;;;3.88;100.00;102695.72;7383909;19;20416;-37
2023/05/04 00:43:50;;;;;;;11.90;4.30;;;;;;;3.80;100.00;102694.06;7389445;19;20416;-43
2023/05/04 00:46:20;;;;;;;13.83;5.27;;;;;;;3.76;100.00;102694.50;7386655;19;20442;-37
2023/05/04 00:48:55;;;;;;;14.23;5.63;;;;;;;3.68;100.00;102697.94;7389463;19;20395;-37
2023/05/04 00:51:25;;;;;;;8.70;4.47;;;;;;;3.61;100.00;102693.84;7386534;19;20426;-37
2023/05/04 00:53:55;;;;;;;9.43;5.07;;;;;;;3.65;100.00;102701.97;7388035;19;20407;-38
2023/05/04 00:56:25;;;;;;;13.00;5.63;;;;;;;3.69;100.00;102709.94;7385962;19;20790;-38
2023/05/04 00:58:56;;;;;;;14.00;5.20;;;;;;;3.69;100.00;102720.16;7390916;19;20399;-37
2023/05/04 01:01:27;;;;;;;11.87;5.07;;;;;;;3.60;100.00;102722.69;7383791;19;20447;-37
2023/05/04 01:03:59;;;;;;;10.87;4.50;;;;;;;3.60;100.00;102738.88;7393338;19;20470;-36
2023/05/04 01:06:34;;;;;;;19.53;5.20;;;;;;;3.56;100.00;102739.34;7387114;19;20443;-36
2023/05/04 01:09:11;;;;;;;15.27;5.30;;;;;;;3.56;100.00;102749.56;7389371;19;20387;-38
2023/05/04 01:11:44;;;;;;;12.53;4.67;;;;;;;3.58;100.00;102753.16;7387421;19;20458;-37
2023/05/04 01:14:15;;;;;;;15.00;5.00;;;;;;;3.56;100.00;102754.66;7390703;19;20430;-38
2023/05/04 01:16:45;;;;;;;11.63;4.50;;;;;;;3.58;100.00;102752.28;7387733;19;20399;-36
2023/05/04 01:19:17;;;;;;;14.90;5.20;;;;;;;3.59;100.00;102757.50;7389052;19;20426;-37
2023/05/04 01:21:50;;;;;;;12.40;5.33;;;;;;;3.57;100.00;102764.13;7388289;19;20437;-38
2023/05/04 01:24:20;;;;;;;14.57;5.90;;;;;;;3.59;100.00;102759.19;7388693;19;20427;-37
2023/05/04 01:26:50;;;;;;;15.47;5.97;;;;;;;3.50;100.00;102764.25;7390142;19;20430;-37
2023/05/04 01:29:22;;;;;;;13.83;5.67;;;;;;;3.42;100.00;102775.28;7388205;19;20411;-37
2023/05/04 01:31:51;;;;;;;9.93;4.73;;;;;;;3.37;100.00;102778.28;7388587;19;20434;-36
2023/05/04 01:34:21;;;;;;;10.63;4.90;;;;;;;3.34;100.00;102783.06;7386424;19;20419;-37
2023/05/04 01:36:54;;;;;;;10.17;5.17;;;;;;;3.25;100.00;102792.31;7392740;19;20768;-36
2023/05/04 01:39:25;;;;;;;14.90;6.20;;;;;;;3.23;100.00;102789.59;7384097;19;20395;-37
2023/05/04 01:41:54;;;;;;;11.43;5.07;;;;;;;3.14;100.00;102788.66;7388966;19;20412;-37
2023/05/04 01:44:24;;;;;;;12.90;5.00;;;;;;;3.13;100.00;102803.81;7385422;19;20427;-36
2023/05/04 01:46:54;;;;;;;10.37;4.93;;;;;;;3.02;100.00;102808.66;7393602;19;20391;-38
2023/05/04 01:49:23;;;;;;;14.50;4.93;;;;;;;3.07;100.00;102827.91;7392077;19;20396;-40
2023/05/04 01:51:56;;;;;;;8.80;5.10;;;;;;;3.07;100.00;102837.19;7394376;19;20471;-38
2023/05/04 01:54:25;;;;;;;12.23;5.90;;;;;;;3.04;100.00;102837.81;7392192;19;20437;-37
2023/05/04 01:56:55;;;;;;;16.50;5.20;;;;;;;3.04;100.00;102835.25;7394246;19;20910;-38
2023/05/04 01:59:25;;;;;;;12.77;5.13;;;;;;;3.17;100.00;102844.22;7391809;19;20386;-38
2023/05/04 02:01:55;;;;;;;12.43;5.10;;;;;;;3.25;100.00;102853.56;7394316;19;20411;-38
2023/05/04 02:04:26;;;;;;;17.43;6.07;;;;;;;3.37;100.00;102865.06;7392364;19;20399;-37
2023/05/04 02:06:58;;;;;;;10.60;5.93;;;;;;;3.32;100.00;102863.66;7394803;19;20918;-38
2023/05/04 02:09:28;;;;;;;16.33;6.30;;;;;;;3.31;100.00;102872.06;7392283;19;20895;-41
2023/05/04 02:11:57;;;;;;;19.70;6.30;;;;;;;2.90;100.00;102866.03;7399337;19;20799;-37
2023/05/04 02:14:27;;;;;;;12.90;6.17;;;;;;;2.88;100.00;102873.53;7392910;19;20441;-38
2023/05/04 02:16:57;;;;;;;13.83;6.03;;;;;;;2.91;100.00;102886.59;7397739;19;20375;-37
2023/05/04 02:19:26;;;;;;;21.70;6.40;;;;;;;2.87;100.00;102903.97;7392327;19;20387;-36
2023/05/04 02:21:59;;;;;;;16.07;6.47;;;;;;;2.93;100.00;102905.50;7395312;19;20745;-37
2023/05/04 02:24:28;;;;;;;19.60;6.30;;;;;;;2.93;100.00;102917.38;7391247;19;20411;-37
2023/05/04 02:26:58;;;;;;;14.97;5.70;;;;;;;2.86;100.00;102914.91;7397197;19;20474;-36
2023/05/04 02:29:27;;;;;;;14.83;5.83;;;;;;;3.12;100.00;102921.91;7391256;19;20394;-37
2023/05/04 02:31:57;;;;;;;9.73;5.30;;;;;;;3.05;100.00;102921.25;7393629;19;20402;-36
2023/05/04 02:34:27;;;;;;;10.13;5.40;;;;;;;3.09;100.00;102922.47;7391434;19;20411;-36
2023/05/04 02:36:59;;;;;;;15.87;6.27;;;;;;;2.83;100.00;102918.91;7394074;19;20711;-36
2023/05/04 02:39:28;;;;;;;10.57;5.50;;;;;;;2.79;100.00;102914.25;7391395;19;20411;-36
2023/05/04 02:41:58;;;;;;;18.77;6.10;;;;;;;2.77;100.00;102923.34;7393762;19;20398;-37
2023/05/04 02:44:28;;;;;;;14.77;5.60;;;;;;;2.84;100.00;102925.81;7391655;19;20443;-36
2023/05/04 02:46:57;;;;;;;14.07;5.27;;;;;;;2.87;100.00;102919.25;7393945;19;20390;-37
2023/05/04 02:49:27;;;;;;;19.07;6.90;;;;;;;2.98;100.00;102911.13;7391218;19;20379;-35
2023/05/04 02:51:59;;;;;;;11.50;5.60;;;;;;;3.03;100.00;102906.50;7392765;19;20399;-40
2023/05/04 02:54:29;;;;;;;19.47;5.90;;;;;;;3.15;100.00;102909.44;7390785;19;20428;-36
2023/05/04 02:56:58;;;;;;;12.57;6.77;;;;;;;2.82;100.00;102904.34;7394657;19;20993;-37
2023/05/04 02:59:28;;;;;;;26.40;7.07;;;;;;;2.76;100.00;102900.25;7389007;19;20374;-37
2023/05/04 03:01:57;;;;;;;18.77;6.93;;;;;;;2.87;100.00;102891.22;7393023;19;20379;-36
2023/05/04 03:04:27;;;;;;;17.90;6.87;;;;;;;2.93;100.00;102885.09;7393013;19;20411;-35
2023/05/04 03:06:59;;;;;;;19.40;7.03;;;;;;;2.87;100.00;102879.34;7392921;19;20375;-37
2023/05/04 03:09:29;;;;;;;15.60;7.20;;;;;;;2.94;100.00;102875.81;7389830;19;20906;-35
2023/05/04 03:11:58;;;;;;;17.77;6.80;;;;;;;3.09;100.00;102872.34;7392590;19;20394;-36
2023/05/04 03:14:28;;;;;;;22.47;7.40;;;;;;;3.19;100.00;102868.22;7388219;19;20434;-36
2023/05/04 03:16:57;;;;;;;19.57;7.77;;;;;;;3.20;100.00;102865.84;7392920;19;20411;-36
2023/05/04 03:19:27;;;;;;;14.97;6.97;;;;;;;3.10;100.00;102866.53;7392447;19;20388;-35
2023/05/04 03:21:59;;;;;;;13.93;6.70;;;;;;;3.09;100.00;102872.34;7391673;19;20375;-37
2023/05/04 03:24:29;;;;;;;68.37;28.20;;;;;;;3.03;100.00;102879.34;7390169;19;20406;-37
2023/05/04 03:26:59;;;;;;;83.00;31.20;;;;;;;3.02;100.00;102880.09;7391984;19;20375;-36
2023/05/04 03:29:28;;;;;;;40.37;17.47;;;;;;;2.94;100.00;102880.91;7394100;19;20414;-36
2023/05/04 03:31:58;;;;;;;36.70;14.10;;;;;;;2.93;100.00;102884.22;7392364;19;20394;-36
2023/05/04 03:34:28;;;;;;;46.27;18.67;;;;;;;3.07;100.00;102889.13;7390091;19;20414;-37
2023/05/04 03:37:00;;;;;;;28.40;12.37;;;;;;;3.21;100.00;102876.94;7393404;19;20762;-36
2023/05/04 03:39:30;;;;;;;22.30;10.60;;;;;;;3.21;100.00;102879.47;7392780;19;20395;-38
2023/05/04 03:42:01;;;;;;;24.70;10.60;;;;;;;3.16;100.00;102893.41;7391995;19;20368;-36
2023/05/04 03:44:31;;;;;;;23.50;10.83;;;;;;;3.24;100.00;102890.03;7391784;19;20439;-36
2023/05/04 03:47:00;;;;;;;25.13;9.53;;;;;;;3.17;100.00;102901.22;7393213;19;20396;-39
2023/05/04 03:49:30;;;;;;;17.27;6.80;;;;;;;2.96;100.00;102910.03;7390068;19;20789;-39
2023/05/04 03:52:02;;;;;;;15.93;6.17;;;;;;;2.68;100.00;102909.63;7392045;19;20399;-37
2023/05/04 03:54:32;;;;;;;15.20;6.50;;;;;;;2.78;100.00;102911.53;7392661;19;20427;-38
2023/05/04 03:57:03;;;;;;;13.70;6.93;;;;;;;2.65;100.00;102911.81;7391834;19;20381;-38
2023/05/04 03:59:32;;;;;;;13.80;6.97;;;;;;;2.79;100.00;102905.69;7391349;19;20407;-35
2023/05/04 04:02:02;;;;;;;16.60;8.23;;;;;;;2.84;100.00;102902.88;7391689;19;20395;-39
2023/05/04 04:04:31;;;;;;;16.97;8.60;;;;;;;2.92;100.00;102892.63;7390589;19;20402;-36
2023/05/04 04:07:04;;;;;;;16.67;7.03;;;;;;;3.08;100.00;102897.72;7394189;19;20398;-37
2023/05/04 04:09:33;;;;;;;25.73;11.83;;;;;;;3.16;100.00;102903.59;7387127;19;20508;-36
2023/05/04 04:12:03;;;;;;;21.97;8.30;;;;;;;3.13;100.00;102906.72;7391416;19;20742;-37
2023/05/04 04:14:33;;;;;;;25.33;12.60;;;;;;;3.06;100.00;102904.28;7389952;19;20450;-37
2023/05/04 04:17:02;;;;;;;28.73;13.13;;;;;;;3.14;100.00;102913.66;7391470;19;20387;-37
2023/05/04 04:19:32;;;;;;;25.50;11.27;;;;;;;3.36;100.00;102904.09;7392424;19;20383;-37
2023/05/04 04:22:04;;;;;;;17.90;9.90;;;;;;;3.38;100.00;102912.81;7391068;19;20402;-36
2023/05/04 04:24:33;;;;;;;29.87;12.00;;;;;;;3.42;100.00;102914.03;7388661;19;21010;-36
2023/05/04 04:27:03;;;;;;;25.43;11.50;;;;;;;3.34;100.00;102908.09;7391795;19;20871;-37
2023/05/04 04:29:34;;;;;;;27.17;11.70;;;;;;;3.47;100.00;102911.94;7391129;19;20419;-37
2023/05/04 04:32:03;;;;;;;17.47;8.90;;;;;;;3.55;100.00;102910.22;7391045;19;20379;-35
2023/05/04 04:34:33;;;;;;;20.43;8.77;;;;;;;3.54;100.00;102909.28;7388585;19;20403;-36
2023/05/04 04:37:06;;;;;;;28.37;8.60;;;;;;;3.62;100.00;102915.22;7391622;19;20371;-37
2023/05/04 04:39:35;;;;;;;17.23;8.20;;;;;;;3.64;100.00;102911.19;7389404;19;20382;-37
2023/05/04 04:42:06;;;;;;;15.33;7.40;;;;;;;3.64;100.00;102916.28;7390423;19;20380;-35
2023/05/04 04:44:36;;;;;;;15.07;7.30;;;;;;;3.64;100.00;102911.19;7388804;19;20423;-36
2023/05/04 04:47:05;;;;;;;16.03;7.40;;;;;;;3.82;100.00;102906.16;7391006;19;20387;-38
2023/05/04 04:49:35;;;;;;;18.97;7.93;;;;;;;3.90;100.00;102906.22;7389518;19;20961;-36
2023/05/04 04:52:07;;;;;;;19.97;8.07;;;;;;;4.14;100.00;102901.81;7386915;19;20415;-36
2023/05/04 04:54:37;;;;;;;18.23;7.93;;;;;;;4.40;100.00;102889.88;7390935;19;20433;-37
2023/05/04 04:57:08;;;;;;;16.03;8.20;;;;;;;4.36;100.00;102891.22;7396921;19;20411;-36
2023/05/04 04:59:40;;;;;;;14.47;7.20;;;;;;;4.55;100.00;102891.44;7390972;19;20447;-36
2023/05/04 05:02:10;;;;;;;19.93;6.83;;;;;;;4.49;100.00;102866.91;7396109;19;20857;-38
2023/05/04 05:04:41;;;;;;;15.30;6.90;;;;;;;4.46;100.00;102858.19;7390568;19;20460;-36
2023/05/04 05:07:13;;;;;;;14.63;6.77;;;;;;;4.55;100.00;102841.94;7395758;19;20434;-39
2023/05/04 05:09:43;;;;;;;16.00;6.93;;;;;;;4.60;100.00;102822.84;7390132;19;20439;-36
2023/05/04 05:12:12;;;;;;;13.47;6.47;;;;;;;4.70;100.00;102812.78;7394584;19;20399;-36
2023/05/04 05:14:42;;;;;;;17.00;7.17;;;;;;;4.88;100.00;102792.34;7389909;19;20988;-37
2023/05/04 05:17:11;;;;;;;16.40;6.77;;;;;;;4.85;100.00;102753.66;7394700;19;20411;-37
2023/05/04 05:19:41;;;;;;;12.10;6.20;;;;;;;4.86;100.00;102719.63;7390113;19;21030;-37
2023/05/04 05:22:13;;;;;;;12.93;5.70;;;;;;;4.89;100.00;102668.78;7394085;19;20431;-36
2023/05/04 05:24:42;;;;;;;13.93;7.07;;;;;;;4.93;100.00;102627.38;7392129;19;20454;-36
2023/05/04 05:27:12;;;;;;;18.63;9.20;;;;;;;5.20;100.00;102617.97;7394571;19;20395;-37
2023/05/04 05:29:41;;;;;;;29.67;12.03;;;;;;;5.95;100.00;102627.31;7389383;19;20430;-36
2023/05/04 05:32:11;;;;;;;32.63;14.67;;;;;;;6.37;100.00;102566.03;7393633;19;20391;-40
2023/05/04 05:34:41;;;;;;;18.93;8.97;;;;;;;6.20;100.00;102439.81;7390083;19;20434;-36
2023/05/04 05:37:13;;;;;;;20.00;8.73;;;;;;;5.89;100.00;102311.63;7394274;19;20419;-37
2023/05/04 05:39:42;;;;;;;26.10;15.17;;;;;;;5.93;100.00;102234.22;7389304;19;20415;-36
2023/05/04 05:42:12;;;;;;;22.70;11.53;;;;;;;5.90;100.00;102180.19;7393759;19;20431;-39
2023/05/04 05:44:42;;;;;;;23.40;11.67;;;;;;;5.99;100.00;102126.25;7388292;19;20438;-38
2023/05/04 05:47:11;;;;;;;24.17;8.30;;;;;;;5.87;100.00;102044.16;7393705;19;20407;-38
2023/05/04 05:49:41;;;;;;;17.77;8.60;;;;;;;5.88;100.00;102010.97;7389199;19;20427;-42
2023/05/04 05:52:17;;;;;;;10.53;5.97;;;;;;;5.91;100.00;101995.84;7392383;19;20411;-38
2023/05/04 05:54:47;;;;;;;15.20;7.17;;;;;;;5.89;100.00;101942.72;7389555;19;20784;-40
2023/05/04 05:57:16;;;;;;;21.87;10.07;;;;;;;6.15;100.00;101925.97;7395547;19;20410;-42
2023/05/04 05:59:46;;;;;;;13.80;7.20;;;;;;;6.24;100.00;101889.94;7390680;19;20431;-37
2023/05/04 06:02:16;;;;;;;30.07;12.20;;;;;;;6.85;100.00;101895.38;7391438;19;20415;-39
2023/05/04 06:04:46;;;;;;;36.87;20.30;;;;;;;7.05;100.00;101844.63;7388221;19;20954;-39
2023/05/04 06:07:20;;;;;;;82.13;37.23;;;;;;;7.45;100.00;101774.75;7391506;19;20782;-37
2023/05/04 06:09:50;;;;;;;15.83;5.77;;;;;;;7.07;100.00;101692.56;7388308;19;20410;-37
2023/05/04 06:12:20;;;;;;;22.97;11.40;;;;;;;6.94;100.00;101665.16;7391858;19;20483;-36
2023/05/04 06:14:49;;;;;;;15.60;6.47;;;;;;;7.03;100.00;101662.34;7388764;19;20459;-36
2023/05/04 06:17:20;;;;;;;16.07;7.23;;;;;;;7.14;100.00;101643.44;7392079;19;20400;-37
2023/05/04 06:19:50;;;;;;;19.20;8.23;;;;;;;7.20;100.00;101642.09;7388608;19;20954;-37
2023/05/04 06:22:22;;;;;;;128.67;60.97;;;;;;;7.48;100.00;101641.44;7390760;19;20407;-36
2023/05/04 06:24:51;;;;;;;14.57;5.27;;;;;;;7.68;100.00;101628.28;7388444;19;20419;-38
2023/05/04 06:27:30;;;;;;;24.30;10.80;;;;;;;7.81;100.00;101626.53;7390933;19;20958;-38
2023/05/04 06:30:00;;;;;;;13.90;5.67;;;;;;;7.76;100.00;101640.75;7387781;19;20408;-37
2023/05/04 06:32:29;;;;;;;27.30;11.47;;;;;;;7.88;100.00;101641.56;7393753;19;20833;-38
2023/05/04 06:35:01;;;;;;;12.60;4.57;;;;;;;7.87;100.00;101655.19;7394583;19;20406;-37
2023/05/04 06:37:33;;;;;;;9.80;4.17;;;;;;;7.94;100.00;101669.34;7397875;19;20998;-41
2023/05/04 06:40:04;;;;;;;15.33;4.47;;;;;;;8.01;100.00;101673.22;7393833;19;20419;-38
2023/05/04 06:42:33;;;;;;;9.43;4.20;;;;;;;8.09;100.00;101678.09;7397754;19;20415;-40
2023/05/04 06:45:03;;;;;;;12.47;4.40;;;;;;;8.29;100.00;101690.47;7394375;19;20413;-38
2023/05/04 06:47:33;;;;;;;9.23;3.20;;;;;;;8.41;100.00;101724.72;7397881;19;20407;-38
2023/05/04 06:50:02;;;;;;;15.53;5.30;;;;;;;8.46;100.00;101767.06;7395960;19;20430;-37
2023/05/04 06:52:35;;;;;;;8.77;2.83;;;;;;;8.47;100.00;101815.13;7396900;19;20435;-40
2023/05/04 06:55:05;;;;;;;10.77;3.20;;;;;;;8.55;100.00;101853.41;7395984;19;20415;-36
2023/05/04 06:57:34;;;;;;;8.50;3.37;;;;;;;8.56;100.00;101880.91;7397159;19;20420;-37
2023/05/04 07:00:05;;;;;;;9.13;2.87;;;;;;;8.71;100.00;101879.34;7392839;19;20426;-36
2023/05/04 07:02:34;;;;;;;13.40;3.13;;;;;;;8.80;100.00;101911.63;7397398;19;20399;-37
2023/05/04 07:05:04;;;;;;;25.70;11.23;;;;;;;8.90;100.00;101934.63;7388245;19;20978;-36
2023/05/04 07:07:37;;;;;;;6.67;2.60;;;;;;;8.95;100.00;101971.88;7397777;19;20404;-36
2023/05/04 07:10:07;;;;;;;10.27;3.90;;;;;;;9.13;100.00;101985.09;7393248;19;20444;-38
2023/05/04 07:12:37;;;;;;;8.23;2.97;;;;;;;9.23;100.00;101996.91;7397125;19;20430;-40
2023/05/04 07:15:08;;;;;;;11.80;4.00;;;;;;;9.27;100.00;102018.59;7393595;19;20433;-38
2023/05/04 07:17:38;;;;;;;8.13;2.50;;;;;;;9.36;100.00;102018.31;7397601;19;20412;-39
2023/05/04 07:20:09;;;;;;;8.00;2.73;;;;;;;9.47;100.00;102037.97;7393320;19;20438;-40
2023/05/04 07:22:41;;;;;;;9.33;3.03;;;;;;;9.55;100.00;102048.81;7396936;19;20758;-37
2023/05/04 07:25:11;;;;;;;8.17;2.40;;;;;;;9.64;100.00;102071.72;7393644;19;20466;-37
2023/05/04 07:27:42;;;;;;;10.23;2.50;;;;;;;9.72;100.00;102075.69;7397085;19;20419;-37
2023/05/04 07:30:12;;;;;;;15.63;2.70;;;;;;;9.80;100.00;102082.22;7393748;19;21026;-36
2023/05/04 07:32:42;;;;;;;6.00;2.60;;;;;;;9.84;100.00;102099.69;7396366;19;20407;-37
2023/05/04 07:35:12;;;;;;;9.50;2.80;;;;;;;9.92;100.00;102109.63;7392695;19;20441;-37
2023/05/04 07:37:45;;;;;;;7.53;2.60;;;;;;;10.04;100.00;102131.06;7397672;19;20439;-38
2023/05/04 07:40:15;;;;;;;13.40;3.00;;;;;;;10.15;100.00;102128.31;7392812;19;21371;-38
2023/05/04 07:42:45;;;;;;;10.23;2.90;;;;;;;10.12;100.00;102163.41;7398057;19;20431;-38
2023/05/04 07:45:15;;;;;;;7.67;2.87;;;;;;;10.05;100.00;102152.59;7391652;19;20435;-39
2023/05/04 07:47:45;;;;;;;7.63;2.90;;;;;;;10.15;100.00;102159.25;7397001;19;20415;-37
2023/05/04 07:50:15;;;;;;;13.57;2.90;;;;;;;10.31;100.00;102156.88;7393089;19;20460;-37
2023/05/04 07:52:48;;;;;;;8.87;3.50;;;;;;;10.37;100.00;102170.16;7396059;19;20420;-37
2023/05/04 07:55:18;;;;;;;7.37;2.60;;;;;;;10.44;100.00;102179.25;7392342;19;20423;-40
2023/05/04 07:57:47;;;;;;;11.33;2.33;;;;;;;10.51;100.00;102173.69;7398119;19;20490;-39
2023/05/04 08:00:18;;;;;;;11.10;3.60;;;;;;;10.63;100.00;102164.94;7393132;19;20442;-38
2023/05/04 08:02:48;;;;;;;10.10;2.80;;;;;;;10.68;100.00;102163.56;7397136;19;20411;-39
2023/05/04 08:05:18;;;;;;;8.77;3.87;;;;;;;10.71;100.00;102163.75;7391602;19;20843;-41
2023/05/04 08:07:50;;;;;;;10.17;2.43;;;;;;;10.77;100.00;102173.59;7396620;19;20419;-38
2023/05/04 08:10:20;;;;;;;11.07;3.20;;;;;;;10.83;100.00;102168.81;7393153;19;20431;-39
2023/05/04 08:12:49;;;;;;;7.70;2.80;;;;;;;10.80;100.00;102184.09;7395671;19;20942;-37
2023/05/04 08:15:20;;;;;;;7.60;2.73;;;;;;;10.82;100.00;102186.78;7391851;19;20467;-37
2023/05/04 08:17:50;;;;;;;12.50;2.93;;;;;;;10.85;100.00;102182.69;7397619;19;20408;-35
2023/05/04 08:20:20;;;;;;;7.10;2.60;;;;;;;10.89;100.00;102174.38;7389880;19;20443;-36
2023/05/04 08:22:54;;;;;;;11.17;3.20;;;;;;;11.07;100.00;102173.69;7395404;19;20890;-46
2023/05/04 08:25:24;;;;;;;7.53;2.90;;;;;;;11.04;100.00;102189.03;7391779;19;20449;-35
2023/05/04 08:27:55;;;;;;;10.30;2.70;;;;;;;11.04;100.00;102182.16;7396755;19;20415;-37
2023/05/04 08:30:25;;;;;;;8.00;2.67;;;;;;;11.19;100.00;102189.09;7388692;19;20468;-38
2023/05/04 08:32:55;;;;;;;10.97;2.90;;;;;;;11.21;100.00;102195.25;7394932;19;20407;-37
2023/05/04 08:35:26;;;;;;;19.80;6.00;;;;;;;11.47;100.00;102189.09;7391044;19;20435;-37
2023/05/04 08:37:59;;;;;;;9.03;3.33;;;;;;;11.53;100.00;102196.31;7395462;19;20430;-39
2023/05/04 08:40:29;;;;;;;13.30;5.50;;;;;;;11.55;100.00;102199.91;7389838;19;20451;-37
2023/05/04 08:42:58;;;;;;;17.83;7.53;;;;;;;11.85;100.00;102179.25;7394772;19;20416;-37
2023/05/04 08:45:29;;;;;;;60.33;32.87;;;;;;;12.11;100.00;102140.25;7390885;19;20483;-38
2023/05/04 08:47:58;;;;;;;12.30;4.93;;;;;;;12.33;100.00;102151.81;7397038;19;20482;-37
2023/05/04 08:50:28;;;;;;;87.10;49.53;;;;;;;12.48;100.00;102157.88;7389858;19;20451;-37
2023/05/04 08:53:01;;;;;;;15.80;8.07;;;;;;;12.36;100.00;102198.59;7394260;19;20408;-36
2023/05/04 08:55:32;;;;;;;88.20;47.57;;;;;;;12.33;100.00;102203.56;7388834;19;20443;-37
2023/05/04 08:58:03;;;;;;;8.47;3.57;;;;;;;11.90;100.00;102213.19;7395194;19;20419;-36
2023/05/04 09:00:34;;;;;;;18.97;8.27;;;;;;;12.00;100.00;102214.63;7387749;19;20435;-36
2023/05/04 09:03:04;;;;;;;9.80;3.83;;;;;;;12.06;100.00;102203.75;7394456;19;20415;-35
2023/05/04 09:05:34;;;;;;;20.23;10.80;;;;;;;12.28;100.00;102188.69;7391684;19;20994;-38
2023/05/04 09:08:07;;;;;;;22.03;9.30;;;;;;;12.37;100.00;102202.94;7396984;19;20408;-38
2023/05/04 09:10:36;;;;;;;6.53;3.03;;;;;;;12.39;100.00;102204.81;7391615;19;20439;-39
2023/05/04 09:13:07;;;;;;;25.27;12.30;;;;;;;12.66;100.00;102221.81;7395508;19;20403;-39
2023/05/04 09:15:36;;;;;;;24.97;12.33;;;;;;;12.86;100.00;102214.31;7391298;19;21073;-40
2023/05/04 09:18:08;;;;;;;39.03;16.03;;;;;;;13.06;100.00;102216.28;7396866;19;20833;-37
2023/05/04 09:20:45;;;;;;;17.10;8.70;;;;;;;13.02;100.00;102227.28;7391009;19;20444;-40
2023/05/04 09:23:19;;;;;;;36.17;15.53;;;;;;;13.06;100.00;102224.06;7395532;19;20430;-39
2023/05/04 09:25:50;;;;;;;19.60;8.13;;;;;;;13.02;100.00;102224.69;7392506;19;20457;-37
2023/05/04 09:28:21;;;;;;;7.53;2.13;;;;;;;13.12;100.00;102225.22;7393711;19;20413;-37
2023/05/04 09:30:50;;;;;;;10.30;2.70;;;;;;;13.02;100.00;102224.69;7388282;19;20446;-37
2023/05/04 09:33:27;;;;;;;10.37;4.37;;;;;;;12.95;100.00;102218.31;7393456;19;20799;-37
2023/05/04 09:35:57;;;;;;;8.83;1.90;;;;;;;13.01;100.00;102228.09;7390147;19;20450;-37
2023/05/04 09:38:31;;;;;;;9.13;3.70;;;;;;;13.17;100.00;102229.81;7395809;19;21003;-39
2023/05/04 09:41:01;;;;;;;6.97;2.90;;;;;;;13.23;100.00;102221.50;7390746;19;20462;-37
2023/05/04 09:43:39;;;;;;;6.90;2.67;;;;;;;13.28;100.00;102227.81;7392656;19;20440;-38
2023/05/04 09:46:09;;;;;;;11.40;2.87;;;;;;;13.34;100.00;102222.97;7390302;19;20459;-40
2023/05/04 09:48:39;;;;;;;12.17;3.07;;;;;;;13.34;100.00;102209.13;7395300;19;20770;-38
2023/05/04 09:51:09;;;;;;;5.80;2.13;;;;;;;13.47;100.00;102210.69;7389925;19;20444;-36
2023/05/04 09:53:42;;;;;;;12.50;3.60;;;;;;;13.55;100.00;102209.41;7393696;19;20432;-38
2023/05/04 09:56:16;;;;;;;10.83;4.83;;;;;;;13.54;100.00;102215.38;7390292;19;20455;-38
2023/05/04 09:58:46;;;;;;;7.77;2.90;;;;;;;13.65;100.00;102205.59;7392301;19;20778;-37
2023/05/04 10:01:16;;;;;;;13.47;2.57;;;;;;;13.80;100.00;102213.28;7390269;19;21046;-37
2023/05/04 10:03:46;;;;;;;10.73;3.03;;;;;;;13.74;100.00;102212.97;7393053;19;20451;-38
2023/05/04 10:06:16;;;;;;;11.23;3.07;;;;;;;13.60;100.00;102214.84;7388876;19;20459;-38
2023/05/04 10:08:48;;;;;;;7.33;2.90;;;;;;;13.70;100.00;102206.69;7399870;19;20783;-40
2023/05/04 10:11:20;;;;;;;29.13;13.50;;;;;;;13.91;100.00;102199.13;7395443;19;20463;-36
2023/05/04 10:13:50;;;;;;;13.77;5.90;;;;;;;14.12;100.00;102201.06;7398896;19;20455;-36
2023/05/04 10:16:29;;;;;;;9.03;3.70;;;;;;;14.22;100.00;102206.69;7395652;19;20443;-38
2023/05/04 10:19:33;;;;;;;22.03;9.90;;;;;;;14.26;100.00;102204.31;7401695;19;20426;-38
2023/05/04 10:22:14;;;;;;;7.03;2.83;;;;;;;14.23;100.00;102213.66;7398730;19;20450;-38
2023/05/04 10:25:18;;;;;;;21.10;9.87;;;;;;;14.11;100.00;102209.63;7396717;19;20423;-36
2023/05/04 10:27:57;;;;;;;16.57;5.60;;;;;;;14.04;100.00;102199.75;7398278;19;20887;-38
2023/05/04 10:30:27;;;;;;;18.47;8.40;;;;;;;14.15;100.00;102196.00;7393657;19;20462;-38
2023/05/04 10:32:57;;;;;;;12.27;3.80;;;;;;;14.30;100.00;102200.16;7398027;19;20943;-37
2023/05/04 10:35:27;;;;;;;9.43;2.70;;;;;;;14.26;97.70;102188.75;7394312;19;20847;-38
2023/05/04 10:37:58;;;;;;;8.70;2.53;;;;;;;14.45;99.90;102184.47;7400767;19;20955;-38
2023/05/04 10:40:40;;;;;;;8.87;3.10;;;;;;;14.65;99.74;102187.13;7393889;19;20439;-37
2023/05/04 10:43:12;;;;;;;10.90;4.17;;;;;;;14.55;98.92;102173.72;7398135;19;20427;-38
2023/05/04 10:45:43;;;;;;;9.53;2.90;;;;;;;14.71;100.00;102170.13;7394607;19;20790;-38
2023/05/04 10:48:12;;;;;;;11.60;3.20;;;;;;;14.79;100.00;102174.81;7398706;19;20415;-38
2023/05/04 10:50:45;;;;;;;12.43;3.40;;;;;;;14.92;100.00;102164.19;7393408;19;20454;-38
2023/05/04 10:53:16;;;;;;;6.90;2.50;;;;;;;14.90;98.17;102158.03;7397418;19;20411;-38
2023/05/04 10:55:49;;;;;;;6.70;2.20;;;;;;;14.90;98.19;102152.84;7394237;19;20445;-37
2023/05/04 10:58:29;;;;;;;6.90;2.10;;;;;;;14.86;95.95;102143.09;7396464;19;20882;-37
2023/05/04 11:00:59;;;;;;;6.10;1.97;;;;;;;15.07;94.89;102124.13;7393886;19;20642;-37
2023/05/04 11:03:40;;;;;;;7.67;2.90;;;;;;;15.05;94.36;102126.66;7397216;19;20427;-39
2023/05/04 11:06:16;;;;;;;7.87;3.90;;;;;;;15.19;94.98;102124.69;7394544;19;20440;-38
2023/05/04 11:09:00;;;;;;;10.93;4.13;;;;;;;15.14;94.25;102115.78;7397819;19;20764;-38
2023/05/04 11:11:38;;;;;;;6.87;2.50;;;;;;;14.97;93.63;102099.41;7394182;19;20458;-37
2023/05/04 11:14:07;;;;;;;11.23;3.13;;;;;;;15.23;93.35;102105.78;7396988;19;20981;-38
2023/05/04 11:16:37;;;;;;;5.67;2.30;;;;;;;15.34;92.67;102097.56;7395283;19;20447;-38
2023/05/04 11:19:11;;;;;;;7.40;2.80;;;;;;;15.31;93.54;102103.53;7396828;19;20482;-38
2023/05/04 11:21:42;;;;;;;9.80;2.70;;;;;;;15.48;94.05;102109.47;7394554;19;20455;-41
2023/05/04 11:24:11;;;;;;;6.07;2.10;;;;;;;15.29;95.11;102107.78;7396776;19;21052;-36
2023/05/04 11:26:50;;;;;;;8.13;3.40;;;;;;;15.51;95.36;102095.69;7394378;19;20462;-38
2023/05/04 11:29:20;;;;;;;6.30;2.20;;;;;;;15.71;93.24;102093.94;7397095;19;20486;-39
2023/05/04 11:31:56;;;;;;;5.57;2.33;;;;;;;15.88;93.51;102101.53;7399588;19;20522;-38
2023/05/04 11:34:26;;;;;;;14.23;2.40;;;;;;;15.90;92.09;102095.59;7394664;19;20459;-42